createdAt,value
2018-10-11T00:02:27.370Z,20.07
2018-10-11T00:04:55.933Z,18.83
2018-10-11T00:07:25.200Z,20.53
2018-10-11T00:09:54.481Z,17.00
2018-10-11T00:12:23.049Z,18.93
2018-10-11T00:14:51.179Z,18.70
2018-10-11T00:17:19.446Z,20.50
2018-10-11T00:19:48.740Z,20.20
2018-10-11T00:22:17.781Z,22.13
2018-10-11T00:24:46.489Z,18.37
2018-10-11T00:27:14.603Z,19.67
2018-10-11T00:29:42.925Z,21.03
2018-10-11T00:32:11.576Z,18.73
2018-10-11T00:34:40.401Z,20.33
2018-10-11T00:37:08.849Z,21.80
2018-10-11T00:39:39.718Z,23.03
2018-10-11T00:42:07.907Z,23.60
2018-10-11T00:44:36.024Z,22.37
2018-10-11T00:47:04.840Z,19.50
2018-10-11T00:49:34.946Z,18.37
2018-10-11T00:52:03.496Z,18.13
2018-10-11T00:54:31.728Z,20.07
2018-10-11T00:56:59.873Z,21.97
2018-10-11T00:59:28.673Z,19.80
2018-10-11T01:01:56.860Z,19.53
2018-10-11T01:04:25.013Z,18.73
2018-10-11T01:06:54.435Z,22.10
2018-10-11T01:09:23.423Z,18.80
2018-10-11T01:11:51.501Z,20.43
2018-10-11T01:14:20.958Z,21.47
2018-10-11T01:16:49.825Z,21.63
2018-10-11T01:19:18.461Z,21.13
2018-10-11T01:21:47.326Z,22.37
2018-10-11T01:24:15.549Z,25.17
2018-10-11T01:26:44.407Z,23.60
2018-10-11T01:29:13.433Z,19.30
2018-10-11T01:31:41.560Z,20.80
2018-10-11T01:34:10.517Z,20.13
2018-10-11T01:36:40.253Z,19.17
2018-10-11T01:39:08.453Z,20.90
2018-10-11T01:41:37.514Z,22.27
2018-10-11T01:44:06.059Z,22.53
2018-10-11T01:46:34.217Z,23.03
2018-10-11T01:49:02.949Z,21.13
2018-10-11T01:51:32.746Z,23.70
2018-10-11T01:54:01.523Z,24.87
2018-10-11T01:56:30.562Z,20.93
2018-10-11T01:58:59.129Z,24.67
2018-10-11T02:01:27.257Z,24.03
2018-10-11T02:03:55.577Z,22.33
2018-10-11T02:06:24.131Z,22.17
2018-10-11T02:08:52.785Z,24.27
2018-10-11T02:11:21.017Z,19.90
2018-10-11T02:13:49.681Z,24.30
2018-10-11T02:16:17.854Z,24.07
2018-10-11T02:18:46.142Z,24.20
2018-10-11T02:21:15.153Z,24.00
2018-10-11T02:23:43.437Z,24.40
2018-10-11T02:26:12.210Z,23.73
2018-10-11T02:28:40.916Z,22.37
2018-10-11T02:31:09.854Z,22.57
2018-10-11T02:33:38.833Z,22.80
2018-10-11T02:36:07.217Z,28.13
2018-10-11T02:38:35.413Z,23.20
2018-10-11T02:41:04.045Z,23.93
2018-10-11T02:43:33.397Z,20.00
2018-10-11T02:46:02.090Z,22.70
2018-10-11T02:48:31.181Z,24.83
2018-10-11T02:50:59.333Z,21.73
2018-10-11T02:53:28.613Z,22.83
2018-10-11T02:55:57.445Z,23.40
2018-10-11T02:58:37.078Z,22.53
2018-10-11T03:01:05.222Z,21.80
2018-10-11T03:03:33.438Z,24.53
2018-10-11T03:06:02.165Z,22.83
2018-10-11T03:08:30.425Z,24.63
2018-10-11T03:10:58.981Z,24.17
2018-10-11T03:13:27.440Z,26.37
2018-10-11T03:15:55.830Z,24.63
2018-10-11T03:18:24.001Z,23.23
2018-10-11T03:20:52.441Z,24.63
2018-10-11T03:23:21.113Z,21.43
2018-10-11T03:25:49.402Z,25.63
2018-10-11T03:28:18.287Z,25.73
2018-10-11T03:30:46.527Z,22.93
2018-10-11T03:33:16.225Z,21.27
2018-10-11T03:35:44.932Z,23.30
2018-10-11T03:38:13.553Z,25.97
2018-10-11T03:40:41.888Z,23.27
2018-10-11T03:43:10.061Z,27.53
2018-10-11T03:45:38.396Z,23.60
2018-10-11T03:48:06.745Z,26.43
2018-10-11T03:50:34.868Z,23.90
2018-10-11T03:53:03.589Z,23.30
2018-10-11T03:55:32.170Z,26.57
2018-10-11T03:58:00.825Z,25.67
2018-10-11T04:00:29.397Z,24.12
2018-10-11T04:02:58.112Z,23.73
2018-10-11T04:05:26.280Z,23.83
2018-10-11T04:07:54.430Z,24.47
2018-10-11T04:10:22.625Z,25.80
2018-10-11T04:12:51.457Z,24.63
2018-10-11T04:15:19.558Z,23.87
2018-10-11T04:17:48.085Z,22.63
2018-10-11T04:20:16.257Z,26.47
2018-10-11T04:22:45.505Z,23.80
2018-10-11T04:25:13.721Z,24.10
2018-10-11T04:27:41.935Z,25.60
2018-10-11T04:30:10.093Z,25.37
2018-10-11T04:32:38.325Z,25.23
2018-10-11T04:35:06.713Z,25.90
2018-10-11T04:37:35.081Z,22.37
2018-10-11T04:40:03.286Z,26.60
2018-10-11T04:42:31.481Z,24.97
2018-10-11T04:44:59.605Z,23.57
2018-10-11T04:47:28.549Z,25.30
2018-10-11T04:49:57.635Z,27.43
2018-10-11T04:52:25.757Z,27.47
2018-10-11T04:54:54.066Z,28.80
2018-10-11T04:57:22.217Z,28.07
2018-10-11T04:59:50.637Z,28.30
2018-10-11T05:02:18.871Z,26.17
2018-10-11T05:04:47.133Z,28.80
2018-10-11T05:07:15.734Z,26.37
2018-10-11T05:09:44.412Z,26.00
2018-10-11T05:12:13.611Z,24.87
2018-10-11T05:14:42.876Z,26.70
2018-10-11T05:17:11.148Z,26.77
2018-10-11T05:19:40.466Z,24.87
2018-10-11T05:22:08.599Z,28.47
2018-10-11T05:24:36.754Z,26.60
2018-10-11T05:27:05.142Z,27.07
2018-10-11T05:29:34.000Z,27.20
2018-10-11T05:32:02.828Z,26.40
2018-10-11T05:34:30.973Z,27.42
2018-10-11T05:37:00.049Z,26.37
2018-10-11T05:39:28.151Z,26.03
2018-10-11T05:41:56.325Z,28.47
2018-10-11T05:44:24.580Z,27.83
2018-10-11T05:46:53.377Z,25.30
2018-10-11T05:49:21.988Z,25.33
2018-10-11T05:51:50.587Z,26.03
2018-10-11T05:54:18.753Z,26.40
2018-10-11T05:56:47.410Z,28.10
2018-10-11T05:59:16.405Z,24.67
2018-10-11T06:01:45.137Z,28.47
2018-10-11T06:04:14.191Z,25.67
2018-10-11T06:06:45.126Z,26.27
2018-10-11T06:09:13.477Z,27.67
2018-10-11T06:11:41.585Z,27.97
2018-10-11T06:14:09.791Z,25.73
2018-10-11T06:16:38.073Z,27.93
2018-10-11T06:19:06.777Z,27.10
2018-10-11T06:21:34.933Z,25.47
2018-10-11T06:24:03.053Z,28.00
2018-10-11T06:26:31.398Z,26.67
2018-10-11T06:28:59.666Z,23.87
2018-10-11T06:31:27.923Z,24.20
2018-10-11T06:33:56.101Z,22.03
2018-10-11T06:36:24.916Z,23.47
2018-10-11T06:38:53.425Z,24.20
2018-10-11T06:41:21.876Z,22.93
2018-10-11T06:43:50.065Z,27.10
2018-10-11T06:46:19.049Z,24.57
2018-10-11T06:48:47.773Z,23.10
2018-10-11T06:51:16.857Z,22.67
2018-10-11T06:53:45.237Z,25.57
2018-10-11T06:56:13.534Z,22.30
2018-10-11T06:58:41.839Z,22.37
2018-10-11T07:01:10.101Z,23.07
2018-10-11T07:03:38.337Z,23.93
2018-10-11T07:06:06.688Z,22.67
2018-10-11T07:08:34.849Z,24.23
2018-10-11T07:11:03.084Z,23.10
2018-10-11T07:13:31.513Z,24.53
2018-10-11T07:15:59.677Z,21.57
2018-10-11T07:18:28.333Z,26.30
2018-10-11T07:20:56.488Z,23.70
2018-10-11T07:23:24.713Z,22.20
2018-10-11T07:25:52.858Z,23.37
2018-10-11T07:28:21.066Z,24.05
2018-10-11T07:30:49.821Z,21.63
2018-10-11T07:33:18.230Z,21.40
2018-10-11T07:35:46.422Z,27.40
2018-10-11T07:38:19.337Z,23.70
2018-10-11T07:40:48.329Z,20.60
2018-10-11T07:43:16.953Z,21.93
2018-10-11T07:45:45.478Z,23.47
2018-10-11T07:48:13.604Z,21.77
2018-10-11T07:50:42.151Z,20.07
2018-10-11T07:53:10.378Z,22.93
2018-10-11T07:55:38.628Z,17.53
2018-10-11T07:58:06.894Z,20.37
2018-10-11T08:00:35.725Z,19.60
2018-10-11T08:03:03.873Z,18.77
2018-10-11T08:05:32.349Z,19.48
2018-10-11T08:08:00.526Z,19.20
2018-10-11T08:10:29.104Z,21.52
2018-10-11T08:12:57.211Z,17.50
2018-10-11T08:15:25.383Z,19.67
2018-10-11T08:17:53.839Z,19.03
2018-10-11T08:20:22.083Z,19.57
2018-10-11T08:22:50.620Z,18.50
2018-10-11T08:25:19.143Z,18.47
2018-10-11T08:27:47.658Z,19.10
2018-10-11T08:30:16.323Z,18.87
2018-10-11T08:32:46.442Z,19.53
2018-10-11T08:35:15.060Z,18.20
2018-10-11T08:37:43.325Z,19.47
2018-10-11T08:40:12.361Z,18.80
2018-10-11T08:42:40.525Z,18.87
2018-10-11T08:45:08.657Z,16.90
2018-10-11T08:47:37.197Z,19.87
2018-10-11T08:50:05.385Z,20.23
2018-10-11T08:52:33.509Z,15.20
2018-10-11T08:55:01.703Z,19.13
2018-10-11T08:57:29.839Z,20.73
2018-10-11T08:59:57.911Z,20.70
2018-10-11T09:02:26.412Z,14.93
2018-10-11T09:04:54.595Z,15.87
2018-10-11T09:07:22.782Z,16.63
2018-10-11T09:09:53.635Z,14.83
2018-10-11T09:12:19.690Z,17.60
2018-10-11T09:14:48.301Z,18.48
2018-10-11T09:17:17.516Z,14.03
2018-10-11T09:19:45.748Z,15.23
2018-10-11T09:22:14.001Z,14.80
2018-10-11T09:24:42.155Z,13.78
2018-10-11T09:27:10.307Z,15.18
2018-10-11T09:29:38.473Z,13.65
2018-10-11T09:32:07.205Z,13.95
2018-10-11T09:34:35.768Z,14.43
2018-10-11T09:37:04.256Z,13.53
2018-10-11T09:39:32.395Z,12.90
2018-10-11T09:42:00.716Z,14.05
2018-10-11T09:44:29.658Z,12.82
2018-10-11T09:46:57.857Z,13.80
2018-10-11T09:49:26.058Z,12.80
2018-10-11T09:51:54.205Z,13.03
2018-10-11T09:54:22.429Z,13.58
2018-10-11T09:57:29.593Z,12.93
2018-10-11T09:59:58.274Z,12.88
2018-10-11T10:02:27.153Z,12.18
2018-10-11T10:04:57.659Z,12.23
2018-10-11T10:07:25.868Z,12.53
2018-10-11T10:09:54.073Z,12.78
2018-10-11T10:12:22.825Z,11.90
2018-10-11T10:14:51.487Z,12.70
2018-10-11T10:17:20.154Z,12.34
2018-10-11T10:19:49.296Z,13.32
2018-10-11T10:22:17.433Z,12.78
2018-10-11T10:24:45.657Z,12.30
2018-10-11T10:27:15.645Z,12.33
2018-10-11T10:29:43.780Z,11.85
2018-10-11T10:32:12.437Z,11.75
2018-10-11T10:34:40.545Z,11.95
2018-10-11T10:37:09.253Z,12.60
2018-10-11T10:39:38.129Z,10.90
2018-10-11T10:42:07.136Z,13.50
2018-10-11T10:44:35.493Z,11.85
2018-10-11T10:47:03.941Z,11.22
2018-10-11T10:49:32.146Z,12.33
2018-10-11T10:52:00.353Z,11.70
2018-10-11T10:54:30.706Z,11.20
2018-10-11T10:56:59.821Z,11.38
2018-10-11T10:59:27.996Z,11.60
2018-10-11T11:01:56.267Z,11.93
2018-10-11T11:04:24.955Z,10.85
2018-10-11T11:06:53.418Z,11.55
2018-10-11T11:09:21.558Z,10.80
2018-10-11T11:11:50.009Z,11.33
2018-10-11T11:14:18.461Z,11.40
2018-10-11T11:16:46.849Z,10.88
2018-10-11T11:19:15.737Z,11.38
2018-10-11T11:21:43.933Z,11.33
2018-10-11T11:24:12.030Z,10.55
2018-10-11T11:26:40.631Z,12.05
2018-10-11T11:29:09.535Z,11.53
2018-10-11T11:31:38.278Z,12.05
2018-10-11T11:34:06.674Z,10.88
2018-10-11T11:36:34.990Z,11.80
2018-10-11T11:39:08.373Z,11.03
2018-10-11T11:41:36.949Z,11.43
2018-10-11T11:44:05.215Z,10.40
2018-10-11T11:46:33.497Z,11.53
2018-10-11T11:49:01.727Z,10.75
2018-10-11T11:51:30.098Z,11.63
2018-10-11T11:53:58.432Z,10.95
2018-10-11T11:56:26.829Z,10.50
2018-10-11T11:58:54.972Z,10.72
2018-10-11T12:01:23.674Z,10.30
2018-10-11T12:03:51.969Z,11.53
2018-10-11T12:06:20.120Z,11.60
2018-10-11T12:08:48.366Z,12.23
2018-10-11T12:11:16.475Z,10.88
2018-10-11T12:13:44.817Z,10.53
2018-10-11T12:16:13.874Z,11.57
2018-10-11T12:18:42.073Z,10.75
2018-10-11T12:21:10.907Z,10.30
2018-10-11T12:23:39.542Z,10.32
2018-10-11T12:26:07.645Z,10.93
2018-10-11T12:28:36.620Z,10.45
2018-10-11T12:31:04.607Z,9.63
2018-10-11T12:33:33.002Z,10.53
2018-10-11T12:36:01.497Z,10.90
2018-10-11T12:38:29.780Z,10.50
2018-10-11T12:40:57.833Z,9.88
2018-10-11T12:43:26.565Z,11.30
2018-10-11T12:45:55.329Z,9.95
2018-10-11T12:48:25.175Z,9.60
2018-10-11T12:50:53.573Z,10.43
2018-10-11T12:53:21.669Z,10.18
2018-10-11T12:55:50.282Z,11.18
2018-10-11T12:58:18.446Z,10.30
2018-10-11T13:00:47.175Z,10.35
2018-10-11T13:03:16.356Z,10.35
2018-10-11T13:05:44.553Z,10.25
2018-10-11T13:08:12.661Z,10.05
2018-10-11T13:10:40.858Z,10.25
2018-10-11T13:13:12.664Z,10.25
2018-10-11T13:15:37.638Z,9.55
2018-10-11T13:18:06.121Z,9.90
2018-10-11T13:20:34.278Z,11.08
2018-10-11T13:23:02.569Z,9.85
2018-10-11T13:25:32.057Z,10.60
2018-10-11T13:28:00.272Z,10.65
2018-10-11T13:30:28.816Z,10.82
2018-10-11T13:32:57.077Z,10.45
2018-10-11T13:35:25.321Z,10.53
2018-10-11T13:37:53.446Z,10.68
2018-10-11T13:40:21.679Z,10.13
2018-10-11T13:42:50.835Z,9.98
2018-10-11T13:45:18.993Z,10.45
2018-10-11T13:47:47.493Z,10.38
2018-10-11T13:50:15.622Z,9.75
2018-10-11T13:52:43.826Z,10.55
2018-10-11T13:55:14.190Z,10.43
2018-10-11T13:57:40.694Z,10.15
2018-10-11T14:00:09.081Z,9.93
2018-10-11T14:02:37.565Z,9.80
2018-10-11T14:05:05.989Z,9.75
2018-10-11T14:07:34.713Z,9.83
2018-10-11T14:10:03.502Z,9.83
2018-10-11T14:12:31.905Z,9.50
2018-10-11T14:15:00.022Z,10.30
2018-10-11T14:17:28.250Z,9.83
2018-10-11T14:19:56.542Z,9.18
2018-10-11T14:22:24.678Z,10.60
2018-10-11T14:24:52.913Z,9.08
2018-10-11T14:27:21.010Z,9.43
2018-10-11T14:29:50.018Z,10.15
2018-10-11T14:32:18.241Z,11.03
2018-10-11T14:34:46.359Z,10.70
2018-10-11T14:37:14.810Z,9.53
2018-10-11T14:39:42.954Z,9.43
2018-10-11T14:42:11.185Z,10.20
2018-10-11T14:44:39.273Z,9.40
2018-10-11T14:47:07.697Z,10.03
2018-10-11T14:49:35.824Z,9.98
2018-10-11T14:52:04.950Z,9.68
2018-10-11T14:54:34.662Z,9.05
2018-10-11T14:57:05.124Z,9.30
2018-10-11T14:59:33.241Z,11.60
2018-10-11T15:02:01.927Z,11.10
2018-10-11T15:04:30.506Z,10.13
2018-10-11T15:06:58.661Z,9.65
2018-10-11T15:09:27.003Z,9.90
2018-10-11T15:11:55.206Z,10.13
2018-10-11T15:14:23.681Z,9.33
2018-10-11T15:16:52.337Z,9.88
2018-10-11T15:19:20.513Z,10.13
2018-10-11T15:21:48.652Z,9.35
2018-10-11T15:24:16.926Z,9.75
2018-10-11T15:26:45.417Z,9.40
2018-10-11T15:29:13.651Z,13.18
2018-10-11T15:31:41.780Z,9.83
2018-10-11T15:34:09.913Z,9.73
2018-10-11T15:36:38.581Z,10.35
2018-10-11T15:39:09.282Z,10.43
2018-10-11T15:41:37.939Z,10.27
2018-10-11T15:44:06.212Z,9.83
2018-10-11T15:46:34.412Z,9.95
2018-10-11T15:49:02.592Z,9.73
2018-10-11T15:51:31.365Z,10.33
2018-10-11T15:53:59.552Z,9.68
2018-10-11T15:56:27.673Z,9.90
2018-10-11T15:58:55.989Z,9.35
2018-10-11T16:01:24.560Z,9.30
2018-10-11T16:03:53.434Z,9.98
2018-10-11T16:06:21.992Z,9.60
2018-10-11T16:08:50.810Z,9.68
2018-10-11T16:11:18.985Z,9.23
2018-10-11T16:13:47.294Z,10.13
2018-10-11T16:16:15.893Z,9.85
2018-10-11T16:18:44.017Z,9.60
2018-10-11T16:21:12.313Z,9.75
2018-10-11T16:23:41.011Z,10.58
2018-10-11T16:26:09.385Z,9.88
2018-10-11T16:28:37.533Z,10.50
2018-10-11T16:31:06.707Z,9.25
2018-10-11T16:33:34.798Z,9.03
2018-10-11T16:36:02.982Z,10.32
2018-10-11T16:38:31.402Z,10.03
2018-10-11T16:40:59.581Z,10.08
2018-10-11T16:43:27.733Z,10.82
2018-10-11T16:45:56.122Z,10.38
2018-10-11T16:48:24.513Z,12.63
2018-10-11T16:50:52.996Z,10.82
2018-10-11T16:53:21.121Z,11.30
2018-10-11T16:55:50.207Z,10.25
2018-10-11T16:58:18.638Z,10.60
2018-10-11T17:00:47.021Z,10.50
2018-10-11T17:03:15.160Z,10.45
2018-10-11T17:05:43.377Z,10.88
2018-10-11T17:08:11.613Z,11.45
2018-10-11T17:10:40.403Z,12.50
2018-10-11T17:13:09.001Z,11.48
2018-10-11T17:15:37.730Z,10.90
2018-10-11T17:18:05.908Z,12.58
2018-10-11T17:20:34.065Z,12.35
2018-10-11T17:23:02.242Z,11.00
2018-10-11T17:25:30.401Z,10.85
2018-10-11T17:27:58.556Z,10.80
2018-10-11T17:30:26.837Z,12.63
2018-10-11T17:32:55.114Z,10.87
2018-10-11T17:35:23.410Z,12.30
2018-10-11T17:37:51.749Z,10.43
2018-10-11T17:40:20.300Z,10.43
2018-10-11T17:42:48.857Z,12.43
2018-10-11T17:45:17.719Z,11.25
2018-10-11T17:47:45.901Z,12.10
2018-10-11T17:50:14.126Z,13.13
2018-10-11T17:52:42.365Z,10.65
2018-10-11T17:55:10.514Z,11.18
2018-10-11T17:57:38.709Z,10.93
2018-10-11T18:00:07.006Z,10.80
2018-10-11T18:02:35.177Z,12.75
2018-10-11T18:05:03.300Z,11.13
2018-10-11T18:07:31.522Z,11.30
2018-10-11T18:09:59.712Z,12.90
2018-10-11T18:12:27.862Z,11.23
2018-10-11T18:14:56.010Z,11.10
2018-10-11T18:17:24.183Z,12.78
2018-10-11T18:19:52.724Z,12.43
2018-10-11T18:22:21.697Z,12.23
2018-10-11T18:24:49.847Z,11.23
2018-10-11T18:27:18.557Z,16.12
2018-10-11T18:29:47.274Z,12.37
2018-10-11T18:32:15.418Z,10.30
2018-10-11T18:34:43.625Z,16.67
2018-10-11T18:37:11.809Z,10.27
2018-10-11T18:39:39.998Z,13.10
2018-10-11T18:42:08.638Z,12.70
2018-10-11T18:44:37.357Z,12.90
2018-10-11T18:47:05.513Z,15.07
2018-10-11T18:49:33.658Z,10.77
2018-10-11T18:52:02.549Z,14.13
2018-10-11T18:54:30.695Z,11.20
2018-10-11T18:56:58.890Z,11.90
2018-10-11T18:59:27.237Z,10.57
2018-10-11T19:01:55.677Z,11.80
2018-10-11T19:04:23.821Z,9.93
2018-10-11T19:06:52.533Z,10.83
2018-10-11T19:09:20.979Z,10.97
2018-10-11T19:11:49.140Z,11.43
2018-10-11T19:14:17.410Z,10.07
2018-10-11T19:16:45.721Z,10.47
2018-10-11T19:19:14.940Z,11.27
2018-10-11T19:22:14.203Z,11.17
2018-10-11T19:24:42.374Z,10.20
2018-10-11T19:27:11.210Z,10.53
2018-10-11T19:29:40.033Z,10.40
2018-10-11T19:32:08.264Z,12.37
2018-10-11T19:34:37.069Z,10.20
2018-10-11T19:37:05.538Z,9.93
2018-10-11T19:39:33.685Z,10.70
2018-10-11T19:42:02.450Z,10.33
2018-10-11T19:44:30.692Z,10.45
2018-10-11T19:46:58.801Z,9.97
2018-10-11T19:49:27.425Z,10.15
2018-10-11T19:51:55.575Z,11.13
2018-10-11T19:54:24.192Z,12.93
2018-10-11T19:56:53.082Z,11.03
2018-10-11T19:59:21.230Z,10.68
2018-10-11T20:01:49.465Z,10.77
2018-10-11T20:04:17.561Z,11.80
2018-10-11T20:06:46.185Z,10.80
2018-10-11T20:09:15.258Z,11.17
2018-10-11T20:11:43.405Z,10.13
2018-10-11T20:14:12.325Z,9.50
2018-10-11T20:16:40.970Z,11.97
2018-10-11T20:19:09.278Z,11.77
2018-10-11T20:21:37.477Z,9.93
2018-10-11T20:24:05.822Z,9.97
2018-10-11T20:26:34.062Z,10.63
2018-10-11T20:29:02.169Z,10.60
2018-10-11T20:31:30.345Z,11.12
2018-10-11T20:34:00.345Z,10.13
2018-10-11T20:36:29.393Z,9.83
2018-10-11T20:38:57.517Z,11.00
2018-10-11T20:41:25.733Z,10.17
2018-10-11T20:43:53.989Z,11.57
2018-10-11T20:46:22.397Z,10.10
2018-10-11T20:48:50.984Z,9.10
2018-10-11T20:51:19.502Z,12.07
2018-10-11T20:53:47.625Z,12.17
2018-10-11T20:56:16.485Z,12.55
2018-10-11T20:58:44.983Z,10.83
2018-10-11T21:01:13.185Z,10.17
2018-10-11T21:03:41.322Z,13.33
2018-10-11T21:06:09.561Z,12.00
2018-10-11T21:08:37.737Z,11.17
2018-10-11T21:11:05.935Z,11.05
2018-10-11T21:13:34.133Z,12.27
2018-10-11T21:16:02.524Z,10.70
2018-10-11T21:18:30.665Z,10.50
2018-10-11T21:20:58.909Z,11.73
2018-10-11T21:23:27.045Z,12.05
2018-10-11T21:25:55.249Z,12.77
2018-10-11T21:28:23.593Z,11.78
2018-10-11T21:30:52.473Z,10.87
2018-10-11T21:33:20.670Z,12.13
2018-10-11T21:35:48.810Z,13.80
2018-10-11T21:38:17.308Z,9.93
2018-10-11T21:40:45.486Z,10.03
2018-10-11T21:43:13.676Z,11.60
2018-10-11T21:46:45.576Z,11.37
2018-10-11T21:49:13.682Z,9.83
2018-10-11T21:51:41.954Z,11.70
2018-10-11T21:54:10.462Z,12.53
2018-10-11T21:56:38.671Z,14.07
2018-10-11T21:59:06.802Z,12.00
2018-10-11T22:01:35.601Z,11.63
2018-10-11T22:04:04.289Z,11.57
2018-10-11T22:06:32.695Z,10.50
2018-10-11T22:09:01.155Z,10.10
2018-10-11T22:11:29.341Z,10.87
2018-10-11T22:13:57.473Z,13.43
2018-10-11T22:16:25.973Z,13.00
2018-10-11T22:18:54.125Z,10.50
2018-10-11T22:21:22.345Z,11.73
2018-10-11T22:23:50.521Z,13.87
2018-10-11T22:26:18.653Z,13.60
2018-10-11T22:28:46.902Z,12.30
2018-10-11T22:31:15.046Z,14.07
2018-10-11T22:33:43.294Z,10.60
2018-10-11T22:36:12.598Z,13.93
2018-10-11T22:38:42.038Z,13.80
2018-10-11T22:41:11.317Z,11.53
2018-10-11T22:43:39.569Z,11.93
2018-10-11T22:46:08.296Z,11.40
2018-10-11T22:48:36.510Z,11.37
2018-10-11T22:51:04.606Z,14.00
2018-10-11T22:53:32.739Z,13.65
2018-10-11T22:56:00.854Z,15.70
2018-10-11T22:58:29.370Z,13.60
2018-10-11T23:00:57.537Z,11.00
2018-10-11T23:03:25.682Z,15.05
2018-10-11T23:05:54.502Z,11.07
2018-10-11T23:08:22.653Z,12.75
2018-10-11T23:10:50.890Z,11.93
2018-10-11T23:13:19.233Z,13.93
2018-10-11T23:15:47.365Z,11.97
2018-10-11T23:18:16.174Z,11.70
2018-10-11T23:20:45.090Z,13.17
2018-10-11T23:23:14.729Z,13.60
2018-10-11T23:25:42.846Z,14.67
2018-10-11T23:28:11.041Z,12.20
2018-10-11T23:30:39.425Z,13.77
2018-10-11T23:33:07.981Z,12.63
2018-10-11T23:35:36.602Z,13.17
2018-10-11T23:38:05.048Z,11.07
2018-10-11T23:40:33.255Z,12.07
2018-10-11T23:43:01.323Z,14.10
2018-10-11T23:45:29.477Z,13.03
2018-10-11T23:47:57.637Z,14.03
2018-10-11T23:50:25.884Z,13.37
2018-10-11T23:52:54.315Z,12.37
2018-10-11T23:55:22.477Z,12.20
2018-10-11T23:57:50.621Z,12.83
